WetterOnline ( http://www.wetteronline.de )

Wetter aktuell PLZ Bereich 36404

Aktuelles Wetter: Bad Hersfeld (273m)

6-stündlich | Neueste Meldungen
Ortszeit Temperatur Wetter
Sa, 21.07. 20:00 23.8° C wolkig
Sa, 21.07. 14:00 24.4° C bedeckt
Sa, 21.07. 8:00 19.8° C wolkig
Sa, 21.07. 2:00 16.8° C wolkig
Fr, 20.07. 20:00 28.4° C wolkenlos
Fr, 20.07. 14:00 28.2° C bewölkt
Fr, 20.07. 8:00 15.3° C leicht bewölkt
Fr, 20.07. 2:00 13.8° C leicht bewölkt
Ortszeit Temperatur Wetter
Sa, 21.07. 21:00 21.8° C bedeckt
Sa, 21.07. 20:50 21.8° C bedeckt
Sa, 21.07. 20:40 22.2° C bedeckt
Sa, 21.07. 20:30 22.6° C wolkig
Sa, 21.07. 20:20 22.6° C wolkig
Sa, 21.07. 20:10 23.0° C bewölkt
Sa, 21.07. 20:00 23.8° C wolkig
Sa, 21.07. 19:30 24.2° C bedeckt
Sa, 21.07. 19:00 25.0° C wolkig
Sa, 21.07. 18:30 25.0° C bedeckt
Sa, 21.07. 18:00 25.0° C bedeckt
Ortszeit Relative Feuchte Sichtweite
Sa, 21.07. 20:00 49% 19 km
Sa, 21.07. 14:00 44% 13 km
Sa, 21.07. 8:00 51% 13 km
Sa, 21.07. 2:00 62% 14 km
Fr, 20.07. 20:00 27% 15 km
Fr, 20.07. 14:00 24% 14 km
Fr, 20.07. 8:00 61% 10 km
Fr, 20.07. 2:00 66% 14 km
Ortszeit Relative Feuchte Sichtweite
Sa, 21.07. 21:00 57% 16 km
Sa, 21.07. 20:50 57% -
Sa, 21.07. 20:40 55% -
Sa, 21.07. 20:30 53% 15 km
Sa, 21.07. 20:20 53% -
Sa, 21.07. 20:10 52% -
Sa, 21.07. 20:00 49% 19 km
Sa, 21.07. 19:30 46% 13 km
Sa, 21.07. 19:00 43% 14 km
Sa, 21.07. 18:30 41% 15 km
Sa, 21.07. 18:00 45% 15 km
Ortszeit Niederschlagsmenge Niederschlagsart
Sa, 21.07. 20:00 0.1 l/m2 in 12 Std. Regen, Niederschlag
Sa, 21.07. 14:00 0.0 l/m2 in 6 Std. -
Sa, 21.07. 8:00 0.0 l/m2 in 12 Std. -
Sa, 21.07. 2:00 0.0 l/m2 in 6 Std. -
Fr, 20.07. 20:00 0.0 l/m2 in 12 Std. -
Fr, 20.07. 14:00 0.0 l/m2 in 6 Std. -
Fr, 20.07. 8:00 0.0 l/m2 in 12 Std. -
Fr, 20.07. 2:00 0.0 l/m2 in 6 Std. -
Ortszeit Niederschlagsmenge Niederschlagsart
Sa, 21.07. 21:00 0.0 l/m2 in 1 Std. -
Sa, 21.07. 20:50 keine Meldung -
Sa, 21.07. 20:40 keine Meldung -
Sa, 21.07. 20:30 0.0 l/m2 in 1 Std. -
Sa, 21.07. 20:20 keine Meldung -
Sa, 21.07. 20:10 keine Meldung -
Sa, 21.07. 20:00 0.0 l/m2 in 1 Std. Regen, Niederschlag
Sa, 21.07. 19:30 0.0 l/m2 in 1 Std. -
Sa, 21.07. 19:00 0.0 l/m2 in 1 Std. -
Sa, 21.07. 18:30 0.0 l/m2 in 1 Std. -
Sa, 21.07. 18:00 0.0 l/m2 in 1 Std. -
Ortszeit Stärke Spitze Richtung
km/h Bft. km/h Grad Sektor
Sa, 21.07. 20:00 7 2 25 80° O
Sa, 21.07. 14:00 7 2 18 200° S
Sa, 21.07. 8:00 2 1 6 290° W
Sa, 21.07. 2:00 0 0 14 - -
Fr, 20.07. 20:00 6 1 22 50° NO
Fr, 20.07. 14:00 9 2 19 230° SW
Fr, 20.07. 8:00 4 1 4 360° N
Fr, 20.07. 2:00 2 1 20 330° NW
Ortszeit Stärke Spitze Richtung
km/h Bft. km/h Grad Sektor
Sa, 21.07. 21:00 6 1 17 60° NO
Sa, 21.07. 20:50 6 1 - 60° NO
Sa, 21.07. 20:40 9 2 - 50° NO
Sa, 21.07. 20:30 11 2 18 60° NO
Sa, 21.07. 20:20 11 2 - 60° NO
Sa, 21.07. 20:10 9 2 - 60° NO
Sa, 21.07. 20:00 7 2 18 80° O
Sa, 21.07. 19:30 9 2 17 80° O
Sa, 21.07. 19:00 7 2 22 100° O
Sa, 21.07. 18:30 9 2 20 100° O
Sa, 21.07. 18:00 11 2 22 100° O
Ortszeit Untergrenze Bedeckung Gattung
total tief tief mittel hoch
Sa, 21.07. 20:00 2700 m 8/8 4/8 - - -
Sa, 21.07. 14:00 2400 m 8/8 8/8 - - -
Sa, 21.07. 8:00 4800 m 8/8 7/8 - - -
Sa, 21.07. 2:00 7800 m 8/8 0/8 - - -
Fr, 20.07. 20:00 - 0/8 0/8 - - -
Fr, 20.07. 14:00 6300 m 8/8 7/8 - - -
Fr, 20.07. 8:00 9000 m 8/8 0/8 - - -
Fr, 20.07. 2:00 3000 m 2/8 - - - -
Ortszeit Bedeckungsgrad in Achtel und Wolkenuntergrenze
Sa, 21.07. 21:00 7(3000m) 8(3900m)
Sa, 21.07. 20:50 7(3000m) 8(3900m)
Sa, 21.07. 20:40 6(3000m) 8(3900m)
Sa, 21.07. 20:30 2(2700m) 8(3600m)
Sa, 21.07. 20:20 2(2700m) 8(3600m)
Sa, 21.07. 20:10 5(2700m) 8(3600m)
Sa, 21.07. 20:00 4(2700m) 8(3600m)
Sa, 21.07. 19:30 6(3600m) 8(6300m) 8(6900m)
Sa, 21.07. 19:00 8(5700m) 8(8400m)
Sa, 21.07. 18:30 6(3900m) 8(6000m)
Sa, 21.07. 18:00 8(3900m)
Ortszeit Luftdruck NN (hPa) Tendenz (hPa in 3 Std.)
Sa, 21.07. 20:00 1011 - 0,6
Sa, 21.07. 14:00 1011 + 0,9
Sa, 21.07. 8:00 1010 + 0,2
Sa, 21.07. 2:00 1011 - 0,3
Fr, 20.07. 20:00 1010 - 1,0
Fr, 20.07. 14:00 1012 - 1,2
Fr, 20.07. 8:00 1016 - 0,6
Fr, 20.07. 2:00 1017 + 0,1
Ortszeit Luftdruck NN (hPa) Tendenz (hPa in 3 Std.)
Sa, 21.07. 21:00 1011 0,0
Sa, 21.07. 20:50 1011 keine Meldung
Sa, 21.07. 20:40 1011 keine Meldung
Sa, 21.07. 20:30 1011 - 0,3
Sa, 21.07. 20:20 1011 keine Meldung
Sa, 21.07. 20:10 1011 keine Meldung
Sa, 21.07. 20:00 1011 - 0,6
Sa, 21.07. 19:30 1011 - 0,6
Sa, 21.07. 19:00 1011 - 0,6
Sa, 21.07. 18:30 1011 - 0,3
Sa, 21.07. 18:00 1011 - 0,2
Ortszeit Schneehöhe (cm)
Sa, 21.07. 20:00 -
Sa, 21.07. 14:00 -
Sa, 21.07. 8:00 -
Sa, 21.07. 2:00 -
Fr, 20.07. 20:00 -
Fr, 20.07. 14:00 -
Fr, 20.07. 8:00 -
Fr, 20.07. 2:00 -
Ortszeit Schneehöhe (cm)
Sa, 21.07. 21:00 -
Sa, 21.07. 20:50 -
Sa, 21.07. 20:40 -
Sa, 21.07. 20:30 -
Sa, 21.07. 20:20 -
Sa, 21.07. 20:10 -
Sa, 21.07. 20:00 -
Sa, 21.07. 19:30 -
Sa, 21.07. 19:00 -
Sa, 21.07. 18:30 -
Sa, 21.07. 18:00 -
Link zu dieser Seite / Seite empfehlen

Das Wetter in ...